sensor_id;sensor_type;location;lat;lon;timestamp;temperature;humidity
14057;DHT22;7103;54.300;10.180;2024-01-06T00:00:25;1.10;99.90
14057;DHT22;7103;54.300;10.180;2024-01-06T00:02:52;1.10;99.90
14057;DHT22;7103;54.300;10.180;2024-01-06T00:05:19;1.20;99.90
14057;DHT22;7103;54.300;10.180;2024-01-06T00:07:45;1.10;99.90
14057;DHT22;7103;54.300;10.180;2024-01-06T00:10:12;1.10;99.90
14057;DHT22;7103;54.300;10.180;2024-01-06T00:12:43;1.20;99.90
14057;DHT22;7103;54.300;10.180;2024-01-06T00:15:10;1.20;99.90
14057;DHT22;7103;54.300;10.180;2024-01-06T00:17:39;1.20;99.90
14057;DHT22;7103;54.300;10.180;2024-01-06T00:20:07;1.10;99.90
14057;DHT22;7103;54.300;10.180;2024-01-06T00:22:34;1.20;99.90
14057;DHT22;7103;54.300;10.180;2024-01-06T00:25:02;1.10;99.90
14057;DHT22;7103;54.300;10.180;2024-01-06T00:27:29;1.20;99.90
14057;DHT22;7103;54.300;10.180;2024-01-06T00:29:55;1.20;99.90
14057;DHT22;7103;54.300;10.180;2024-01-06T00:32:22;1.20;99.90
14057;DHT22;7103;54.300;10.180;2024-01-06T00:34:49;1.20;99.90
14057;DHT22;7103;54.300;10.180;2024-01-06T00:37:16;1.20;99.90
14057;DHT22;7103;54.300;10.180;2024-01-06T00:39:43;1.20;99.90
14057;DHT22;7103;54.300;10.180;2024-01-06T00:42:10;1.20;99.90
14057;DHT22;7103;54.300;10.180;2024-01-06T00:44:37;1.20;99.90
14057;DHT22;7103;54.300;10.180;2024-01-06T00:47:04;1.20;99.90
14057;DHT22;7103;54.300;10.180;2024-01-06T00:49:30;1.30;99.90
14057;DHT22;7103;54.300;10.180;2024-01-06T00:51:57;1.20;99.90
14057;DHT22;7103;54.300;10.180;2024-01-06T00:54:24;1.30;99.90
14057;DHT22;7103;54.300;10.180;2024-01-06T00:56:51;1.20;99.90
14057;DHT22;7103;54.300;10.180;2024-01-06T00:59:22;1.20;99.90
14057;DHT22;7103;54.300;10.180;2024-01-06T01:01:48;1.30;99.90
14057;DHT22;7103;54.300;10.180;2024-01-06T01:04:15;1.30;99.90
14057;DHT22;7103;54.300;10.180;2024-01-06T01:06:42;1.20;99.90
14057;DHT22;7103;54.300;10.180;2024-01-06T01:09:09;1.30;99.90
14057;DHT22;7103;54.300;10.180;2024-01-06T01:11:37;1.20;99.90
14057;DHT22;7103;54.300;10.180;2024-01-06T01:14:04;1.20;99.90
14057;DHT22;7103;54.300;10.180;2024-01-06T01:16:31;1.20;99.90
14057;DHT22;7103;54.300;10.180;2024-01-06T01:18:58;1.20;99.90
14057;DHT22;7103;54.300;10.180;2024-01-06T01:21:25;1.30;99.90
14057;DHT22;7103;54.300;10.180;2024-01-06T01:23:52;1.20;99.90
14057;DHT22;7103;54.300;10.180;2024-01-06T01:26:19;1.30;99.90
14057;DHT22;7103;54.300;10.180;2024-01-06T01:28:46;1.30;99.90
14057;DHT22;7103;54.300;10.180;2024-01-06T01:31:13;1.20;99.90
14057;DHT22;7103;54.300;10.180;2024-01-06T01:33:40;1.30;99.90
14057;DHT22;7103;54.300;10.180;2024-01-06T01:36:07;1.30;99.90
14057;DHT22;7103;54.300;10.180;2024-01-06T01:38:34;1.30;99.90
14057;DHT22;7103;54.300;10.180;2024-01-06T01:41:01;1.30;99.90
14057;DHT22;7103;54.300;10.180;2024-01-06T01:43:27;1.40;99.90
14057;DHT22;7103;54.300;10.180;2024-01-06T01:45:56;1.30;99.90
14057;DHT22;7103;54.300;10.180;2024-01-06T01:48:23;1.40;99.90
14057;DHT22;7103;54.300;10.180;2024-01-06T01:50:53;1.30;99.90
14057;DHT22;7103;54.300;10.180;2024-01-06T01:53:20;1.30;99.90
14057;DHT22;7103;54.300;10.180;2024-01-06T01:55:48;1.40;99.90
14057;DHT22;7103;54.300;10.180;2024-01-06T01:58:16;1.40;99.90
14057;DHT22;7103;54.300;10.180;2024-01-06T02:00:42;1.40;99.90
14057;DHT22;7103;54.300;10.180;2024-01-06T02:03:11;1.40;99.90
14057;DHT22;7103;54.300;10.180;2024-01-06T02:05:39;1.40;99.90
14057;DHT22;7103;54.300;10.180;2024-01-06T02:08:06;1.40;99.90
14057;DHT22;7103;54.300;10.180;2024-01-06T02:10:33;1.40;99.90
14057;DHT22;7103;54.300;10.180;2024-01-06T02:13:13;1.40;99.90
14057;DHT22;7103;54.300;10.180;2024-01-06T02:15:40;1.40;99.90
14057;DHT22;7103;54.300;10.180;2024-01-06T02:18:07;1.40;99.90
14057;DHT22;7103;54.300;10.180;2024-01-06T02:20:35;1.40;99.90
14057;DHT22;7103;54.300;10.180;2024-01-06T02:23:02;1.40;99.90
14057;DHT22;7103;54.300;10.180;2024-01-06T02:25:29;1.40;99.90
14057;DHT22;7103;54.300;10.180;2024-01-06T02:27:56;1.40;99.90
14057;DHT22;7103;54.300;10.180;2024-01-06T02:30:23;1.40;99.90
14057;DHT22;7103;54.300;10.180;2024-01-06T02:32:50;1.40;99.90
14057;DHT22;7103;54.300;10.180;2024-01-06T02:35:17;1.50;99.90
14057;DHT22;7103;54.300;10.180;2024-01-06T02:37:44;1.40;99.90
14057;DHT22;7103;54.300;10.180;2024-01-06T02:40:11;1.40;99.90
14057;DHT22;7103;54.300;10.180;2024-01-06T02:42:38;1.40;99.90
14057;DHT22;7103;54.300;10.180;2024-01-06T02:45:06;1.40;99.90
14057;DHT22;7103;54.300;10.180;2024-01-06T02:47:33;1.40;99.90
14057;DHT22;7103;54.300;10.180;2024-01-06T02:50:00;1.40;99.90
14057;DHT22;7103;54.300;10.180;2024-01-06T02:52:27;1.40;99.90
14057;DHT22;7103;54.300;10.180;2024-01-06T02:54:54;1.40;99.90
14057;DHT22;7103;54.300;10.180;2024-01-06T02:57:21;1.40;99.90
14057;DHT22;7103;54.300;10.180;2024-01-06T02:59:48;1.40;99.90
14057;DHT22;7103;54.300;10.180;2024-01-06T03:02:15;1.30;99.90
14057;DHT22;7103;54.300;10.180;2024-01-06T03:04:42;1.40;99.90
14057;DHT22;7103;54.300;10.180;2024-01-06T03:07:08;1.30;99.90
14057;DHT22;7103;54.300;10.180;2024-01-06T03:09:35;1.40;99.90
14057;DHT22;7103;54.300;10.180;2024-01-06T03:12:02;1.40;99.90
14057;DHT22;7103;54.300;10.180;2024-01-06T03:14:29;1.40;99.90
14057;DHT22;7103;54.300;10.180;2024-01-06T03:16:56;1.30;99.90
14057;DHT22;7103;54.300;10.180;2024-01-06T03:19:24;1.40;99.90
14057;DHT22;7103;54.300;10.180;2024-01-06T03:21:53;1.40;99.90
14057;DHT22;7103;54.300;10.180;2024-01-06T03:24:21;1.40;99.90
14057;DHT22;7103;54.300;10.180;2024-01-06T03:26:48;1.40;99.90
14057;DHT22;7103;54.300;10.180;2024-01-06T03:29:15;1.50;99.90
14057;DHT22;7103;54.300;10.180;2024-01-06T03:31:43;1.30;99.90
14057;DHT22;7103;54.300;10.180;2024-01-06T03:34:10;1.40;99.90
14057;DHT22;7103;54.300;10.180;2024-01-06T03:36:39;1.40;99.90
14057;DHT22;7103;54.300;10.180;2024-01-06T03:39:07;1.30;99.90
14057;DHT22;7103;54.300;10.180;2024-01-06T03:41:34;1.40;99.90
14057;DHT22;7103;54.300;10.180;2024-01-06T03:44:00;1.40;99.90
14057;DHT22;7103;54.300;10.180;2024-01-06T03:46:27;1.50;99.90
14057;DHT22;7103;54.300;10.180;2024-01-06T03:48:54;1.40;99.90
14057;DHT22;7103;54.300;10.180;2024-01-06T03:51:21;1.40;99.90
14057;DHT22;7103;54.300;10.180;2024-01-06T03:53:49;1.30;99.90
14057;DHT22;7103;54.300;10.180;2024-01-06T03:56:15;1.30;99.90
14057;DHT22;7103;54.300;10.180;2024-01-06T03:58:42;1.30;99.90
14057;DHT22;7103;54.300;10.180;2024-01-06T04:01:09;1.30;99.90
14057;DHT22;7103;54.300;10.180;2024-01-06T04:03:38;1.40;99.90
14057;DHT22;7103;54.300;10.180;2024-01-06T04:06:07;1.30;99.90
14057;DHT22;7103;54.300;10.180;2024-01-06T04:08:35;1.30;99.90
14057;DHT22;7103;54.300;10.180;2024-01-06T04:11:02;1.40;99.90
14057;DHT22;7103;54.300;10.180;2024-01-06T04:13:29;1.30;99.90
14057;DHT22;7103;54.300;10.180;2024-01-06T04:15:56;1.30;99.90
14057;DHT22;7103;54.300;10.180;2024-01-06T04:18:22;1.40;99.90
14057;DHT22;7103;54.300;10.180;2024-01-06T04:20:50;1.30;99.90
14057;DHT22;7103;54.300;10.180;2024-01-06T04:23:16;1.30;99.90
14057;DHT22;7103;54.300;10.180;2024-01-06T04:25:43;1.30;99.90
14057;DHT22;7103;54.300;10.180;2024-01-06T04:28:10;1.40;99.90
14057;DHT22;7103;54.300;10.180;2024-01-06T04:30:37;1.30;99.90
14057;DHT22;7103;54.300;10.180;2024-01-06T04:33:04;1.30;99.90
14057;DHT22;7103;54.300;10.180;2024-01-06T04:35:31;1.30;99.90
14057;DHT22;7103;54.300;10.180;2024-01-06T04:37:58;1.20;99.90
14057;DHT22;7103;54.300;10.180;2024-01-06T04:40:24;1.30;99.90
14057;DHT22;7103;54.300;10.180;2024-01-06T04:42:51;1.30;99.90
14057;DHT22;7103;54.300;10.180;2024-01-06T04:45:18;1.30;99.90
14057;DHT22;7103;54.300;10.180;2024-01-06T04:47:46;1.20;99.90
14057;DHT22;7103;54.300;10.180;2024-01-06T04:50:13;1.30;99.90
14057;DHT22;7103;54.300;10.180;2024-01-06T04:52:40;1.30;99.90
14057;DHT22;7103;54.300;10.180;2024-01-06T04:55:07;1.30;99.90
14057;DHT22;7103;54.300;10.180;2024-01-06T04:57:34;1.30;99.90
14057;DHT22;7103;54.300;10.180;2024-01-06T05:00:00;1.30;99.90
14057;DHT22;7103;54.300;10.180;2024-01-06T05:02:28;1.30;99.90
14057;DHT22;7103;54.300;10.180;2024-01-06T05:04:55;1.30;99.90
14057;DHT22;7103;54.300;10.180;2024-01-06T05:07:22;1.40;99.90
14057;DHT22;7103;54.300;10.180;2024-01-06T05:09:48;1.40;99.90
14057;DHT22;7103;54.300;10.180;2024-01-06T05:12:15;1.30;99.90
14057;DHT22;7103;54.300;10.180;2024-01-06T05:14:42;1.40;99.90
14057;DHT22;7103;54.300;10.180;2024-01-06T05:17:09;1.30;99.90
14057;DHT22;7103;54.300;10.180;2024-01-06T05:19:36;1.30;99.90
14057;DHT22;7103;54.300;10.180;2024-01-06T05:22:03;1.30;99.90
14057;DHT22;7103;54.300;10.180;2024-01-06T05:24:30;1.30;99.90
14057;DHT22;7103;54.300;10.180;2024-01-06T05:26:57;1.30;99.90
14057;DHT22;7103;54.300;10.180;2024-01-06T05:29:23;1.30;99.90
14057;DHT22;7103;54.300;10.180;2024-01-06T05:31:53;1.40;99.90
14057;DHT22;7103;54.300;10.180;2024-01-06T05:34:20;1.40;99.90
14057;DHT22;7103;54.300;10.180;2024-01-06T05:36:47;1.30;99.90
14057;DHT22;7103;54.300;10.180;2024-01-06T05:39:13;1.30;99.90
14057;DHT22;7103;54.300;10.180;2024-01-06T05:41:41;1.30;99.90
14057;DHT22;7103;54.300;10.180;2024-01-06T05:44:08;1.30;99.90
14057;DHT22;7103;54.300;10.180;2024-01-06T05:46:35;1.30;99.90
14057;DHT22;7103;54.300;10.180;2024-01-06T05:49:02;1.30;99.90
14057;DHT22;7103;54.300;10.180;2024-01-06T05:51:29;1.20;99.90
14057;DHT22;7103;54.300;10.180;2024-01-06T05:53:56;1.20;99.90
14057;DHT22;7103;54.300;10.180;2024-01-06T05:56:26;1.20;99.90
14057;DHT22;7103;54.300;10.180;2024-01-06T05:58:53;1.20;99.90
14057;DHT22;7103;54.300;10.180;2024-01-06T06:01:20;1.20;99.90
14057;DHT22;7103;54.300;10.180;2024-01-06T06:03:50;1.10;99.90
14057;DHT22;7103;54.300;10.180;2024-01-06T06:06:17;1.20;99.90
14057;DHT22;7103;54.300;10.180;2024-01-06T06:08:45;1.10;99.90
14057;DHT22;7103;54.300;10.180;2024-01-06T06:11:12;1.20;99.90
14057;DHT22;7103;54.300;10.180;2024-01-06T06:13:40;1.20;99.90
14057;DHT22;7103;54.300;10.180;2024-01-06T06:16:09;1.30;99.90
14057;DHT22;7103;54.300;10.180;2024-01-06T06:18:37;1.30;99.90
14057;DHT22;7103;54.300;10.180;2024-01-06T06:21:04;1.20;99.90
14057;DHT22;7103;54.300;10.180;2024-01-06T06:23:31;1.20;99.90
14057;DHT22;7103;54.300;10.180;2024-01-06T06:25:58;1.10;99.90
14057;DHT22;7103;54.300;10.180;2024-01-06T06:28:26;1.20;99.90
14057;DHT22;7103;54.300;10.180;2024-01-06T06:30:53;1.20;99.90
14057;DHT22;7103;54.300;10.180;2024-01-06T06:33:20;1.20;99.90
14057;DHT22;7103;54.300;10.180;2024-01-06T06:35:47;1.20;99.90
14057;DHT22;7103;54.300;10.180;2024-01-06T06:38:14;1.20;99.90
14057;DHT22;7103;54.300;10.180;2024-01-06T06:40:41;1.20;99.90
14057;DHT22;7103;54.300;10.180;2024-01-06T06:43:07;1.20;99.90
14057;DHT22;7103;54.300;10.180;2024-01-06T06:45:35;1.30;99.90
14057;DHT22;7103;54.300;10.180;2024-01-06T06:48:02;1.20;99.90
14057;DHT22;7103;54.300;10.180;2024-01-06T06:50:29;1.20;99.90
14057;DHT22;7103;54.300;10.180;2024-01-06T06:52:56;1.20;99.90
14057;DHT22;7103;54.300;10.180;2024-01-06T06:55:23;1.20;99.90
14057;DHT22;7103;54.300;10.180;2024-01-06T06:57:50;1.30;99.90
14057;DHT22;7103;54.300;10.180;2024-01-06T07:00:17;1.30;99.90
14057;DHT22;7103;54.300;10.180;2024-01-06T07:02:44;1.30;99.90
14057;DHT22;7103;54.300;10.180;2024-01-06T07:05:11;1.30;99.90
14057;DHT22;7103;54.300;10.180;2024-01-06T07:07:38;1.30;99.90
14057;DHT22;7103;54.300;10.180;2024-01-06T07:10:05;1.30;99.90
14057;DHT22;7103;54.300;10.180;2024-01-06T07:12:32;1.30;99.90
14057;DHT22;7103;54.300;10.180;2024-01-06T07:14:59;1.30;99.90
14057;DHT22;7103;54.300;10.180;2024-01-06T07:17:26;1.30;99.90
14057;DHT22;7103;54.300;10.180;2024-01-06T07:19:53;1.30;99.90
14057;DHT22;7103;54.300;10.180;2024-01-06T07:22:20;1.30;99.90
14057;DHT22;7103;54.300;10.180;2024-01-06T07:24:47;1.40;99.90
14057;DHT22;7103;54.300;10.180;2024-01-06T07:27:14;1.30;99.90
14057;DHT22;7103;54.300;10.180;2024-01-06T07:29:41;1.30;99.90
14057;DHT22;7103;54.300;10.180;2024-01-06T07:32:08;1.30;99.90
14057;DHT22;7103;54.300;10.180;2024-01-06T07:34:35;1.30;99.90
14057;DHT22;7103;54.300;10.180;2024-01-06T07:37:02;1.40;99.90
14057;DHT22;7103;54.300;10.180;2024-01-06T07:39:29;1.40;99.90
14057;DHT22;7103;54.300;10.180;2024-01-06T07:41:56;1.40;99.90
14057;DHT22;7103;54.300;10.180;2024-01-06T07:44:23;1.40;99.90
14057;DHT22;7103;54.300;10.180;2024-01-06T07:46:52;1.30;99.90
14057;DHT22;7103;54.300;10.180;2024-01-06T07:49:19;1.40;99.90
14057;DHT22;7103;54.300;10.180;2024-01-06T07:51:46;1.50;99.90
14057;DHT22;7103;54.300;10.180;2024-01-06T07:54:13;1.40;99.90
14057;DHT22;7103;54.300;10.180;2024-01-06T07:56:40;1.40;99.90
14057;DHT22;7103;54.300;10.180;2024-01-06T07:59:08;1.40;99.90
14057;DHT22;7103;54.300;10.180;2024-01-06T08:01:34;1.60;99.90
14057;DHT22;7103;54.300;10.180;2024-01-06T08:04:01;1.40;99.90
14057;DHT22;7103;54.300;10.180;2024-01-06T08:06:28;1.50;99.90
14057;DHT22;7103;54.300;10.180;2024-01-06T08:08:55;1.50;99.90
14057;DHT22;7103;54.300;10.180;2024-01-06T08:11:22;1.50;99.90
14057;DHT22;7103;54.300;10.180;2024-01-06T08:13:49;1.40;99.90
14057;DHT22;7103;54.300;10.180;2024-01-06T08:16:16;1.40;99.90
14057;DHT22;7103;54.300;10.180;2024-01-06T08:18:43;1.30;99.90
14057;DHT22;7103;54.300;10.180;2024-01-06T08:21:10;1.40;99.90
14057;DHT22;7103;54.300;10.180;2024-01-06T08:23:37;1.50;99.90
14057;DHT22;7103;54.300;10.180;2024-01-06T08:26:05;1.40;99.90
14057;DHT22;7103;54.300;10.180;2024-01-06T08:28:35;1.50;99.90
14057;DHT22;7103;54.300;10.180;2024-01-06T08:31:02;1.50;99.90
14057;DHT22;7103;54.300;10.180;2024-01-06T08:33:29;1.50;99.90
14057;DHT22;7103;54.300;10.180;2024-01-06T08:35:56;1.50;99.90
14057;DHT22;7103;54.300;10.180;2024-01-06T08:38:23;1.40;99.90
14057;DHT22;7103;54.300;10.180;2024-01-06T08:40:50;1.50;99.90
14057;DHT22;7103;54.300;10.180;2024-01-06T08:43:17;1.50;99.90
14057;DHT22;7103;54.300;10.180;2024-01-06T08:45:44;1.50;99.90
14057;DHT22;7103;54.300;10.180;2024-01-06T08:48:11;1.60;99.90
14057;DHT22;7103;54.300;10.180;2024-01-06T08:50:40;1.50;99.90
14057;DHT22;7103;54.300;10.180;2024-01-06T08:53:07;1.50;99.90
14057;DHT22;7103;54.300;10.180;2024-01-06T08:55:34;1.50;99.90
14057;DHT22;7103;54.300;10.180;2024-01-06T08:58:01;1.50;99.90
14057;DHT22;7103;54.300;10.180;2024-01-06T09:00:27;1.50;99.90
14057;DHT22;7103;54.300;10.180;2024-01-06T09:02:54;1.50;99.90
14057;DHT22;7103;54.300;10.180;2024-01-06T09:05:21;1.60;99.90
14057;DHT22;7103;54.300;10.180;2024-01-06T09:07:48;1.70;99.90
14057;DHT22;7103;54.300;10.180;2024-01-06T09:10:21;1.70;99.90
14057;DHT22;7103;54.300;10.180;2024-01-06T09:12:48;1.70;99.50
14057;DHT22;7103;54.300;10.180;2024-01-06T09:15:15;1.70;96.60
14057;DHT22;7103;54.300;10.180;2024-01-06T09:17:41;1.70;94.70
14057;DHT22;7103;54.300;10.180;2024-01-06T09:20:09;1.70;92.70
14057;DHT22;7103;54.300;10.180;2024-01-06T09:22:36;1.70;87.80
14057;DHT22;7103;54.300;10.180;2024-01-06T09:25:03;1.60;81.30
14057;DHT22;7103;54.300;10.180;2024-01-06T09:27:30;1.60;85.50
14057;DHT22;7103;54.300;10.180;2024-01-06T09:29:57;1.70;93.10
14057;DHT22;7103;54.300;10.180;2024-01-06T09:32:23;1.70;89.70
14057;DHT22;7103;54.300;10.180;2024-01-06T09:34:50;1.70;88.10
14057;DHT22;7103;54.300;10.180;2024-01-06T09:37:17;1.60;92.10
14057;DHT22;7103;54.300;10.180;2024-01-06T09:39:44;1.60;93.60
14057;DHT22;7103;54.300;10.180;2024-01-06T09:42:11;1.60;97.10
14057;DHT22;7103;54.300;10.180;2024-01-06T09:44:38;1.60;99.90
14057;DHT22;7103;54.300;10.180;2024-01-06T09:47:05;1.70;99.90
14057;DHT22;7103;54.300;10.180;2024-01-06T09:49:34;1.70;99.90
14057;DHT22;7103;54.300;10.180;2024-01-06T09:52:11;1.70;99.90
14057;DHT22;7103;54.300;10.180;2024-01-06T09:54:42;1.70;99.90
14057;DHT22;7103;54.300;10.180;2024-01-06T09:57:11;1.70;99.90
14057;DHT22;7103;54.300;10.180;2024-01-06T09:59:39;1.70;97.80
14057;DHT22;7103;54.300;10.180;2024-01-06T10:02:09;1.70;97.80
14057;DHT22;7103;54.300;10.180;2024-01-06T10:04:36;1.80;99.40
14057;DHT22;7103;54.300;10.180;2024-01-06T10:07:03;1.70;93.40
14057;DHT22;7103;54.300;10.180;2024-01-06T10:09:30;1.70;90.50
14057;DHT22;7103;54.300;10.180;2024-01-06T10:11:57;1.60;93.70
14057;DHT22;7103;54.300;10.180;2024-01-06T10:14:26;1.50;90.50
14057;DHT22;7103;54.300;10.180;2024-01-06T10:16:53;1.60;98.80
14057;DHT22;7103;54.300;10.180;2024-01-06T10:19:20;1.60;96.90
14057;DHT22;7103;54.300;10.180;2024-01-06T10:21:47;1.70;96.60
14057;DHT22;7103;54.300;10.180;2024-01-06T10:24:17;1.70;90.40
14057;DHT22;7103;54.300;10.180;2024-01-06T10:26:45;1.70;92.20
14057;DHT22;7103;54.300;10.180;2024-01-06T10:29:15;1.70;95.70
14057;DHT22;7103;54.300;10.180;2024-01-06T10:31:42;1.70;91.80
14057;DHT22;7103;54.300;10.180;2024-01-06T10:34:09;1.60;93.10
14057;DHT22;7103;54.300;10.180;2024-01-06T10:36:36;1.60;94.90
14057;DHT22;7103;54.300;10.180;2024-01-06T10:39:03;1.70;93.90
14057;DHT22;7103;54.300;10.180;2024-01-06T10:41:31;1.70;95.90
14057;DHT22;7103;54.300;10.180;2024-01-06T10:43:58;1.80;97.20
14057;DHT22;7103;54.300;10.180;2024-01-06T10:46:28;1.70;85.80
14057;DHT22;7103;54.300;10.180;2024-01-06T10:48:57;1.70;79.20
14057;DHT22;7103;54.300;10.180;2024-01-06T10:51:25;1.70;84.60
14057;DHT22;7103;54.300;10.180;2024-01-06T10:53:53;1.60;81.00
14057;DHT22;7103;54.300;10.180;2024-01-06T10:56:21;1.70;87.40
14057;DHT22;7103;54.300;10.180;2024-01-06T10:58:48;1.70;84.90
14057;DHT22;7103;54.300;10.180;2024-01-06T11:01:21;1.60;72.70
14057;DHT22;7103;54.300;10.180;2024-01-06T11:03:54;1.60;80.40
14057;DHT22;7103;54.300;10.180;2024-01-06T11:06:22;1.60;76.00
14057;DHT22;7103;54.300;10.180;2024-01-06T11:11:32;1.60;72.20
14057;DHT22;7103;54.300;10.180;2024-01-06T11:16:44;1.60;87.60
14057;DHT22;7103;54.300;10.180;2024-01-06T11:22:30;1.60;83.70
14057;DHT22;7103;54.300;10.180;2024-01-06T11:25:12;1.70;79.70
14057;DHT22;7103;54.300;10.180;2024-01-06T11:27:42;1.60;72.10
14057;DHT22;7103;54.300;10.180;2024-01-06T11:30:25;1.70;72.40
14057;DHT22;7103;54.300;10.180;2024-01-06T11:32:56;1.70;73.70
14057;DHT22;7103;54.300;10.180;2024-01-06T11:35:27;1.80;88.70
14057;DHT22;7103;54.300;10.180;2024-01-06T11:37:56;1.90;72.60
14057;DHT22;7103;54.300;10.180;2024-01-06T11:40:33;1.80;58.60
14057;DHT22;7103;54.300;10.180;2024-01-06T11:43:08;1.80;46.20
14057;DHT22;7103;54.300;10.180;2024-01-06T11:45:37;1.70;30.10
14057;DHT22;7103;54.300;10.180;2024-01-06T11:48:06;1.70;16.50
14057;DHT22;7103;54.300;10.180;2024-01-06T11:50:36;1.80;16.40
14057;DHT22;7103;54.300;10.180;2024-01-06T11:53:04;1.80;16.40
14057;DHT22;7103;54.300;10.180;2024-01-06T11:55:31;1.80;16.30
14057;DHT22;7103;54.300;10.180;2024-01-06T11:57:59;1.80;13.50
14057;DHT22;7103;54.300;10.180;2024-01-06T12:00:30;1.80;1.00
14057;DHT22;7103;54.300;10.180;2024-01-06T12:02:58;1.70;1.00
14057;DHT22;7103;54.300;10.180;2024-01-06T12:05:26;1.70;1.00
14057;DHT22;7103;54.300;10.180;2024-01-06T12:07:58;1.80;1.00
14057;DHT22;7103;54.300;10.180;2024-01-06T12:10:26;1.80;1.00
14057;DHT22;7103;54.300;10.180;2024-01-06T12:13:01;1.80;1.00
14057;DHT22;7103;54.300;10.180;2024-01-06T12:15:30;1.80;1.00
14057;DHT22;7103;54.300;10.180;2024-01-06T12:17:57;1.80;1.00
14057;DHT22;7103;54.300;10.180;2024-01-06T12:20:26;1.80;1.00
14057;DHT22;7103;54.300;10.180;2024-01-06T12:22:53;1.80;1.00
14057;DHT22;7103;54.300;10.180;2024-01-06T12:25:24;1.80;1.00
14057;DHT22;7103;54.300;10.180;2024-01-06T12:27:52;1.80;1.00
14057;DHT22;7103;54.300;10.180;2024-01-06T12:30:22;1.80;1.00
14057;DHT22;7103;54.300;10.180;2024-01-06T12:32:50;1.80;1.00
14057;DHT22;7103;54.300;10.180;2024-01-06T12:35:20;1.80;1.00
14057;DHT22;7103;54.300;10.180;2024-01-06T12:37:48;1.80;1.00
14057;DHT22;7103;54.300;10.180;2024-01-06T12:40:15;1.70;1.00
14057;DHT22;7103;54.300;10.180;2024-01-06T12:42:44;1.70;1.00
14057;DHT22;7103;54.300;10.180;2024-01-06T12:45:11;1.90;1.00
14057;DHT22;7103;54.300;10.180;2024-01-06T12:47:39;1.90;1.00
14057;DHT22;7103;54.300;10.180;2024-01-06T12:50:08;1.90;1.00
14057;DHT22;7103;54.300;10.180;2024-01-06T12:52:35;1.90;1.00
14057;DHT22;7103;54.300;10.180;2024-01-06T12:55:02;1.90;1.00
14057;DHT22;7103;54.300;10.180;2024-01-06T12:57:30;1.90;1.00
14057;DHT22;7103;54.300;10.180;2024-01-06T12:59:57;1.90;1.00
14057;DHT22;7103;54.300;10.180;2024-01-06T13:02:24;1.80;1.00
14057;DHT22;7103;54.300;10.180;2024-01-06T13:04:51;1.80;1.00
14057;DHT22;7103;54.300;10.180;2024-01-06T13:07:18;1.80;1.00
14057;DHT22;7103;54.300;10.180;2024-01-06T13:09:45;1.80;1.00
14057;DHT22;7103;54.300;10.180;2024-01-06T13:12:12;1.80;1.00
14057;DHT22;7103;54.300;10.180;2024-01-06T13:14:39;1.80;1.00
14057;DHT22;7103;54.300;10.180;2024-01-06T13:17:06;1.90;1.00
14057;DHT22;7103;54.300;10.180;2024-01-06T13:19:33;1.90;1.00
14057;DHT22;7103;54.300;10.180;2024-01-06T13:22:00;1.90;1.00
14057;DHT22;7103;54.300;10.180;2024-01-06T13:24:27;1.80;1.00
14057;DHT22;7103;54.300;10.180;2024-01-06T13:26:54;1.70;1.00
14057;DHT22;7103;54.300;10.180;2024-01-06T13:29:21;1.80;1.00
14057;DHT22;7103;54.300;10.180;2024-01-06T13:31:48;1.90;1.00
14057;DHT22;7103;54.300;10.180;2024-01-06T13:34:16;1.80;13.50
14057;DHT22;7103;54.300;10.180;2024-01-06T13:36:43;1.80;16.40
14057;DHT22;7103;54.300;10.180;2024-01-06T13:39:10;1.80;36.80
14057;DHT22;7103;54.300;10.180;2024-01-06T13:41:43;1.80;37.50
14057;DHT22;7103;54.300;10.180;2024-01-06T13:44:10;1.80;44.00
14057;DHT22;7103;54.300;10.180;2024-01-06T13:46:37;1.70;43.70
14057;DHT22;7103;54.300;10.180;2024-01-06T13:49:05;1.70;45.90
14057;DHT22;7103;54.300;10.180;2024-01-06T13:51:32;1.70;49.50
14057;DHT22;7103;54.300;10.180;2024-01-06T13:53:59;1.70;49.20
14057;DHT22;7103;54.300;10.180;2024-01-06T13:56:26;1.70;56.70
14057;DHT22;7103;54.300;10.180;2024-01-06T13:58:53;1.70;44.30
14057;DHT22;7103;54.300;10.180;2024-01-06T14:01:20;1.70;42.20
14057;DHT22;7103;54.300;10.180;2024-01-06T14:03:47;1.80;41.30
14057;DHT22;7103;54.300;10.180;2024-01-06T14:06:14;1.80;36.10
14057;DHT22;7103;54.300;10.180;2024-01-06T14:08:41;1.70;34.30
14057;DHT22;7103;54.300;10.180;2024-01-06T14:11:08;1.70;34.10
14057;DHT22;7103;54.300;10.180;2024-01-06T14:13:35;1.70;16.50
14057;DHT22;7103;54.300;10.180;2024-01-06T14:16:02;1.60;16.80
14057;DHT22;7103;54.300;10.180;2024-01-06T14:18:29;1.60;33.00
14057;DHT22;7103;54.300;10.180;2024-01-06T14:20:56;1.70;39.90
14057;DHT22;7103;54.300;10.180;2024-01-06T14:23:23;1.70;23.90
14057;DHT22;7103;54.300;10.180;2024-01-06T14:25:51;1.70;18.40
14057;DHT22;7103;54.300;10.180;2024-01-06T14:28:18;1.70;16.40
14057;DHT22;7103;54.300;10.180;2024-01-06T14:30:45;1.70;22.90
14057;DHT22;7103;54.300;10.180;2024-01-06T14:33:12;1.70;26.00
14057;DHT22;7103;54.300;10.180;2024-01-06T14:35:39;1.70;31.20
14057;DHT22;7103;54.300;10.180;2024-01-06T14:38:05;1.70;16.50
14057;DHT22;7103;54.300;10.180;2024-01-06T14:40:32;1.70;16.40
14057;DHT22;7103;54.300;10.180;2024-01-06T14:42:59;1.70;10.60
14057;DHT22;7103;54.300;10.180;2024-01-06T14:45:29;1.60;1.00
14057;DHT22;7103;54.300;10.180;2024-01-06T14:47:56;1.50;1.00
14057;DHT22;7103;54.300;10.180;2024-01-06T14:50:23;1.60;1.00
14057;DHT22;7103;54.300;10.180;2024-01-06T14:52:50;1.60;1.00
14057;DHT22;7103;54.300;10.180;2024-01-06T14:55:17;1.50;1.00
14057;DHT22;7103;54.300;10.180;2024-01-06T14:57:44;1.60;1.00
14057;DHT22;7103;54.300;10.180;2024-01-06T15:00:11;1.60;1.00
14057;DHT22;7103;54.300;10.180;2024-01-06T15:02:39;1.60;1.00
14057;DHT22;7103;54.300;10.180;2024-01-06T15:05:06;1.60;1.00
14057;DHT22;7103;54.300;10.180;2024-01-06T15:07:33;1.60;1.00
14057;DHT22;7103;54.300;10.180;2024-01-06T15:10:01;1.60;1.00
14057;DHT22;7103;54.300;10.180;2024-01-06T15:12:30;1.60;1.00
14057;DHT22;7103;54.300;10.180;2024-01-06T15:14:57;1.60;1.00
14057;DHT22;7103;54.300;10.180;2024-01-06T15:17:27;1.60;1.00
14057;DHT22;7103;54.300;10.180;2024-01-06T15:19:54;1.40;1.00
14057;DHT22;7103;54.300;10.180;2024-01-06T15:22:21;1.60;1.00
14057;DHT22;7103;54.300;10.180;2024-01-06T15:24:49;1.50;1.00
14057;DHT22;7103;54.300;10.180;2024-01-06T15:27:24;1.50;4.90
14057;DHT22;7103;54.300;10.180;2024-01-06T15:29:51;1.40;15.90
14057;DHT22;7103;54.300;10.180;2024-01-06T15:32:18;1.30;16.20
14057;DHT22;7103;54.300;10.180;2024-01-06T15:34:45;1.30;42.70
14057;DHT22;7103;54.300;10.180;2024-01-06T15:37:12;1.30;53.70
14057;DHT22;7103;54.300;10.180;2024-01-06T15:39:39;1.30;50.60
14057;DHT22;7103;54.300;10.180;2024-01-06T15:42:06;1.30;51.70
14057;DHT22;7103;54.300;10.180;2024-01-06T15:44:32;1.30;41.40
14057;DHT22;7103;54.300;10.180;2024-01-06T15:47:00;1.30;16.10
14057;DHT22;7103;54.300;10.180;2024-01-06T15:49:28;1.30;6.00
14057;DHT22;7103;54.300;10.180;2024-01-06T15:51:55;1.40;1.00
14057;DHT22;7103;54.300;10.180;2024-01-06T15:54:23;1.30;1.00
14057;DHT22;7103;54.300;10.180;2024-01-06T15:56:50;1.30;1.00